createdAt,value
2022-09-15T00:01:20.754Z,17.36
2022-09-15T00:03:49.249Z,17.39
2022-09-15T00:06:17.729Z,17.39
2022-09-15T00:08:45.635Z,17.38
2022-09-15T00:11:21.031Z,17.34
2022-09-15T00:13:49.789Z,17.31
2022-09-15T00:16:19.643Z,17.29
2022-09-15T00:18:47.890Z,17.30
2022-09-15T00:21:19.289Z,17.32
2022-09-15T00:23:48.338Z,17.34
2022-09-15T00:26:20.328Z,17.36
2022-09-15T00:28:48.692Z,17.34
2022-09-15T00:31:20.713Z,17.31
2022-09-15T00:33:50.797Z,17.27
2022-09-15T00:36:19.799Z,17.26
2022-09-15T00:38:48.469Z,17.27
2022-09-15T00:41:19.339Z,17.30
2022-09-15T00:43:53.964Z,17.33
2022-09-15T00:46:34.325Z,17.35
2022-09-15T00:49:14.752Z,17.35
2022-09-15T00:51:45.561Z,17.34
2022-09-15T00:54:19.030Z,17.31
2022-09-15T00:56:50.256Z,17.27
2022-09-15T00:59:23.273Z,17.23
2022-09-15T01:01:58.863Z,17.22
2022-09-15T01:04:27.394Z,17.24
2022-09-15T01:07:02.348Z,17.26
2022-09-15T01:09:50.111Z,17.29
2022-09-15T01:12:18.515Z,17.31
2022-09-15T01:14:46.335Z,17.30
2022-09-15T01:17:35.262Z,17.30
2022-09-15T01:20:34.672Z,17.28
2022-09-15T01:23:44.930Z,17.23
2022-09-15T01:26:27.930Z,17.18
2022-09-15T01:29:17.741Z,17.16
2022-09-15T01:32:27.442Z,17.17
2022-09-15T01:35:25.823Z,17.16
2022-09-15T01:38:21.143Z,17.08
2022-09-15T01:41:05.421Z,17.02
2022-09-15T01:43:36.944Z,16.96
2022-09-15T01:46:06.247Z,16.90
2022-09-15T01:48:36.015Z,16.84
2022-09-15T01:51:06.470Z,16.81
2022-09-15T01:53:35.439Z,16.79
2022-09-15T01:56:07.621Z,16.78
2022-09-15T01:58:38.381Z,16.76
2022-09-15T02:01:18.663Z,16.74
2022-09-15T02:03:55.654Z,16.70
2022-09-15T02:06:39.887Z,16.62
2022-09-15T02:09:12.883Z,16.48
2022-09-15T02:11:52.408Z,16.31
2022-09-15T02:14:31.356Z,16.20
2022-09-15T02:16:59.175Z,16.10
2022-09-15T02:19:41.856Z,16.01
2022-09-15T02:22:23.566Z,15.92
2022-09-15T02:25:06.033Z,15.87
2022-09-15T02:27:44.442Z,15.83
2022-09-15T02:30:16.085Z,15.81
2022-09-15T02:32:49.882Z,15.79
2022-09-15T02:35:18.292Z,15.74
2022-09-15T02:37:46.863Z,15.67
2022-09-15T02:40:14.923Z,15.59
2022-09-15T02:42:53.962Z,15.54
2022-09-15T02:45:23.243Z,15.52
2022-09-15T02:47:51.300Z,15.46
2022-09-15T02:50:20.630Z,15.36
2022-09-15T02:52:48.747Z,15.28
2022-09-15T02:55:16.612Z,15.22
2022-09-15T02:57:44.426Z,15.21
2022-09-15T03:00:14.683Z,15.21
2022-09-15T03:02:46.164Z,15.23
2022-09-15T03:05:15.610Z,15.24
2022-09-15T03:07:43.469Z,15.24
2022-09-15T03:10:12.916Z,15.19
2022-09-15T03:12:44.056Z,15.10
2022-09-15T03:15:13.854Z,15.02
2022-09-15T03:17:43.240Z,14.98
2022-09-15T03:20:13.135Z,14.95
2022-09-15T03:22:41.517Z,14.91
2022-09-15T03:25:10.760Z,14.88
2022-09-15T03:27:38.728Z,14.85
2022-09-15T03:30:07.788Z,14.84
2022-09-15T03:32:36.651Z,14.84
2022-09-15T03:35:07.043Z,14.83
2022-09-15T03:37:34.980Z,14.79
2022-09-15T03:40:04.373Z,14.73
2022-09-15T03:42:32.474Z,14.71
2022-09-15T03:45:00.311Z,14.71
2022-09-15T03:47:28.153Z,14.71
2022-09-15T03:49:55.954Z,14.65
2022-09-15T03:52:24.018Z,14.60
2022-09-15T03:54:51.896Z,14.57
2022-09-15T03:57:19.728Z,14.52
2022-09-15T03:59:48.054Z,14.50
2022-09-15T04:02:16.101Z,14.47
2022-09-15T04:04:44.475Z,14.45
2022-09-15T04:07:12.278Z,14.44
2022-09-15T04:09:40.311Z,14.42
2022-09-15T04:12:08.173Z,14.40
2022-09-15T04:14:35.941Z,14.36
2022-09-15T04:17:03.891Z,14.33
2022-09-15T04:19:32.085Z,14.32
2022-09-15T04:21:59.901Z,14.27
2022-09-15T04:24:27.942Z,14.24
2022-09-15T04:26:55.759Z,14.21
2022-09-15T04:29:23.582Z,14.19
2022-09-15T04:31:53.146Z,14.20
2022-09-15T04:34:21.121Z,14.21
2022-09-15T04:36:49.040Z,14.17
2022-09-15T04:39:16.797Z,14.16
2022-09-15T04:41:44.606Z,14.14
2022-09-15T04:44:12.725Z,14.15
2022-09-15T04:46:40.701Z,14.13
2022-09-15T04:49:08.570Z,14.13
2022-09-15T04:51:36.358Z,14.12
2022-09-15T04:54:04.406Z,14.10
2022-09-15T04:56:32.238Z,14.10
2022-09-15T04:59:03.886Z,14.12
2022-09-15T05:01:35.503Z,14.14
2022-09-15T05:04:04.470Z,14.17
2022-09-15T05:06:35.152Z,14.21
2022-09-15T05:09:10.019Z,14.26
2022-09-15T05:11:38.776Z,14.31
2022-09-15T05:14:07.011Z,14.32
2022-09-15T05:16:35.902Z,14.25
2022-09-15T05:19:04.787Z,14.21
2022-09-15T05:21:33.948Z,14.24
2022-09-15T05:24:02.082Z,14.23
2022-09-15T05:26:30.208Z,14.20
2022-09-15T05:28:58.093Z,14.26
2022-09-15T05:31:31.605Z,14.31
2022-09-15T05:34:04.475Z,14.30
2022-09-15T05:36:33.251Z,14.34
2022-09-15T05:39:02.000Z,14.46
2022-09-15T05:41:31.229Z,14.61
2022-09-15T05:43:59.454Z,14.66
2022-09-15T05:46:29.544Z,14.69
2022-09-15T05:48:58.781Z,14.70
2022-09-15T05:51:27.475Z,14.75
2022-09-15T05:53:56.010Z,14.87
2022-09-15T05:56:24.564Z,14.93
2022-09-15T05:58:52.603Z,14.99
2022-09-15T06:01:24.395Z,15.03
2022-09-15T06:03:53.702Z,15.05
2022-09-15T06:06:23.314Z,15.08
2022-09-15T06:09:15.992Z,15.10
2022-09-15T06:11:43.837Z,15.08
2022-09-15T06:14:13.500Z,15.12
2022-09-15T06:16:41.345Z,15.16
2022-09-15T06:19:09.229Z,15.19
2022-09-15T06:21:36.973Z,15.18
2022-09-15T06:24:07.312Z,15.13
2022-09-15T06:26:35.965Z,15.17
2022-09-15T06:29:05.502Z,15.21
2022-09-15T06:31:35.911Z,15.24
2022-09-15T06:34:05.895Z,15.24
2022-09-15T06:36:33.913Z,15.24
2022-09-15T06:39:01.722Z,15.25
2022-09-15T06:41:47.032Z,15.23
2022-09-15T06:44:21.907Z,15.27
2022-09-15T06:46:50.143Z,15.29
2022-09-15T06:49:19.729Z,15.35
2022-09-15T06:51:48.632Z,15.34
2022-09-15T06:54:17.019Z,15.32
2022-09-15T06:56:47.301Z,15.37
2022-09-15T06:59:16.977Z,15.40
2022-09-15T07:01:55.512Z,15.43
2022-09-15T07:04:23.451Z,15.43
2022-09-15T07:06:51.289Z,15.47
2022-09-15T07:09:19.908Z,15.54
2022-09-15T07:11:47.847Z,15.61
2022-09-15T07:14:17.162Z,15.70
2022-09-15T07:16:47.725Z,15.78
2022-09-15T07:19:16.581Z,15.78
2022-09-15T07:21:44.652Z,15.77
2022-09-15T07:24:13.199Z,15.70
2022-09-15T07:26:42.243Z,15.64
2022-09-15T07:29:10.092Z,15.65
2022-09-15T07:31:39.486Z,15.65
2022-09-15T07:34:10.590Z,15.64
2022-09-15T07:36:39.077Z,15.67
2022-09-15T07:39:08.078Z,15.67
2022-09-15T07:41:36.864Z,15.61
2022-09-15T07:44:08.315Z,15.54
2022-09-15T07:46:36.518Z,15.56
2022-09-15T07:49:06.867Z,15.57
2022-09-15T07:51:35.939Z,15.63
2022-09-15T07:54:03.917Z,15.76
2022-09-15T07:56:32.460Z,15.85
2022-09-15T07:59:00.542Z,15.95
2022-09-15T08:01:28.474Z,16.01
2022-09-15T08:04:02.043Z,16.04
2022-09-15T08:06:32.641Z,16.08
2022-09-15T08:09:02.224Z,16.13
2022-09-15T08:11:31.072Z,16.21
2022-09-15T08:14:03.361Z,16.24
2022-09-15T08:16:31.777Z,16.26
2022-09-15T08:19:00.235Z,16.29
2022-09-15T08:21:33.776Z,16.37
2022-09-15T08:24:02.204Z,16.43
2022-09-15T08:26:31.162Z,16.47
2022-09-15T08:28:59.510Z,16.49
2022-09-15T08:31:27.362Z,16.49
2022-09-15T08:33:56.692Z,16.55
2022-09-15T08:36:28.164Z,16.62
2022-09-15T08:38:56.951Z,16.68
2022-09-15T08:41:29.640Z,16.66
2022-09-15T08:44:36.201Z,16.73
2022-09-15T08:47:18.978Z,16.81
2022-09-15T08:50:05.600Z,16.89
2022-09-15T08:52:48.698Z,16.91
2022-09-15T08:55:53.980Z,16.94
2022-09-15T08:58:29.209Z,16.89
2022-09-15T09:01:41.294Z,16.85
2022-09-15T09:04:32.314Z,16.85
2022-09-15T09:07:52.969Z,16.94
2022-09-15T09:11:10.173Z,17.08
2022-09-15T09:13:46.901Z,17.14
2022-09-15T09:16:52.982Z,17.28
2022-09-15T09:20:16.348Z,17.32
2022-09-15T09:22:48.797Z,17.32
2022-09-15T09:25:27.370Z,17.37
2022-09-15T09:28:01.964Z,17.48
2022-09-15T09:30:33.376Z,17.58
2022-09-15T09:33:26.501Z,17.64
2022-09-15T09:35:55.636Z,17.62
2022-09-15T09:38:36.801Z,17.56
2022-09-15T09:41:26.941Z,17.50
2022-09-15T09:43:56.508Z,17.42
2022-09-15T09:46:24.796Z,17.40
2022-09-15T09:48:57.496Z,17.52
2022-09-15T09:52:04.827Z,17.55
2022-09-15T09:54:35.630Z,17.78
2022-09-15T09:57:31.493Z,17.89
2022-09-15T09:59:59.778Z,17.99
2022-09-15T10:02:28.871Z,18.02
2022-09-15T10:05:22.644Z,17.95
2022-09-15T10:07:50.889Z,17.86
2022-09-15T10:10:24.447Z,17.78
2022-09-15T10:12:56.863Z,17.69
2022-09-15T10:15:27.883Z,17.60
2022-09-15T10:17:56.762Z,17.68
2022-09-15T10:20:51.309Z,17.72
2022-09-15T10:23:31.368Z,17.80
2022-09-15T10:26:22.159Z,17.87
2022-09-15T10:29:17.185Z,17.87
2022-09-15T10:31:49.327Z,17.78
2022-09-15T10:34:32.181Z,17.75
2022-09-15T10:37:37.247Z,17.77
2022-09-15T10:40:20.890Z,17.81
2022-09-15T10:43:00.522Z,17.88
2022-09-15T10:45:48.482Z,17.81
2022-09-15T10:48:26.511Z,17.74
2022-09-15T10:51:20.080Z,17.73
2022-09-15T10:54:22.458Z,17.74
2022-09-15T10:56:59.294Z,17.79
2022-09-15T10:59:44.420Z,17.88
2022-09-15T11:02:33.830Z,17.98
2022-09-15T11:05:26.869Z,18.04
2022-09-15T11:08:34.201Z,18.07
2022-09-15T11:11:34.866Z,18.12
2022-09-15T11:14:52.108Z,18.11
2022-09-15T11:17:34.299Z,17.91
2022-09-15T11:20:47.153Z,17.89
2022-09-15T11:24:00.144Z,17.94
2022-09-15T11:26:53.441Z,17.97
2022-09-15T11:29:34.992Z,17.94
2022-09-15T11:32:19.575Z,17.93
2022-09-15T11:35:00.031Z,17.96
2022-09-15T11:37:56.893Z,17.97
2022-09-15T11:40:37.803Z,17.87
2022-09-15T11:43:36.093Z,17.74
2022-09-15T11:46:13.622Z,17.62
2022-09-15T11:48:54.528Z,17.54
2022-09-15T11:51:28.597Z,17.46
2022-09-15T11:54:08.237Z,17.36
2022-09-15T11:56:42.772Z,17.31
2022-09-15T11:59:50.358Z,17.29
2022-09-15T12:02:31.082Z,17.33
2022-09-15T12:05:11.814Z,17.40
2022-09-15T12:08:12.989Z,17.43
2022-09-15T12:10:45.855Z,17.44
2022-09-15T12:13:26.488Z,17.38
2022-09-15T12:15:55.617Z,17.34
2022-09-15T12:19:02.183Z,17.30
2022-09-15T12:21:48.738Z,17.23
2022-09-15T12:24:34.935Z,17.19
2022-09-15T12:27:14.527Z,17.16
2022-09-15T12:29:52.809Z,17.14
2022-09-15T12:32:35.230Z,17.13
2022-09-15T12:35:07.922Z,17.12
2022-09-15T12:38:13.569Z,17.10
2022-09-15T12:40:44.277Z,17.09
2022-09-15T12:43:26.128Z,17.08
2022-09-15T12:46:01.925Z,17.12
2022-09-15T12:48:36.748Z,17.26
2022-09-15T12:51:23.445Z,17.40
2022-09-15T12:53:59.505Z,17.50
2022-09-15T12:56:29.789Z,17.59
2022-09-15T12:59:06.762Z,17.70
2022-09-15T13:01:47.844Z,17.78
2022-09-15T13:04:53.433Z,17.83
2022-09-15T13:07:34.788Z,17.79
2022-09-15T13:10:29.392Z,17.71
2022-09-15T13:13:18.750Z,17.64
2022-09-15T13:15:50.931Z,17.51
2022-09-15T13:18:26.051Z,17.44
2022-09-15T13:21:00.606Z,17.49
2022-09-15T13:23:34.279Z,17.58
2022-09-15T13:26:11.987Z,17.65
2022-09-15T13:28:40.261Z,17.59
2022-09-15T13:31:34.675Z,17.48
2022-09-15T13:38:15.138Z,17.49
2022-09-15T13:41:19.894Z,17.47
2022-09-15T13:44:25.488Z,17.43
2022-09-15T13:47:31.729Z,17.32
2022-09-15T13:50:31.266Z,17.26
2022-09-15T13:53:06.835Z,17.21
2022-09-15T13:55:38.817Z,17.10
2022-09-15T14:01:07.833Z,17.05
2022-09-15T14:03:57.300Z,17.20
2022-09-15T14:06:31.315Z,17.29
2022-09-15T14:09:06.621Z,17.30
2022-09-15T14:11:37.907Z,17.30
2022-09-15T14:14:29.442Z,17.35
2022-09-15T14:16:57.517Z,17.38
2022-09-15T14:19:50.300Z,17.42
2022-09-15T14:22:29.547Z,17.44
2022-09-15T14:25:06.332Z,17.38
2022-09-15T14:27:38.401Z,17.44
2022-09-15T14:30:16.535Z,17.62
2022-09-15T14:32:47.007Z,17.94
2022-09-15T14:35:23.562Z,17.96
2022-09-15T14:37:58.270Z,17.95
2022-09-15T14:40:36.455Z,18.07
2022-09-15T14:43:25.984Z,17.98
2022-09-15T14:46:09.452Z,17.80
2022-09-15T14:48:37.312Z,17.63
2022-09-15T14:51:14.379Z,17.52
2022-09-15T14:53:44.766Z,17.52
2022-09-15T14:56:21.529Z,17.62
2022-09-15T14:58:55.595Z,18.13
2022-09-15T15:01:32.656Z,18.24
2022-09-15T15:04:31.379Z,18.24
2022-09-15T15:07:20.106Z,18.21
2022-09-15T15:10:06.267Z,18.21
2022-09-15T15:12:43.616Z,18.36
2022-09-15T15:15:19.021Z,18.54
2022-09-15T15:17:49.981Z,18.54
2022-09-15T15:20:25.667Z,18.45
2022-09-15T15:23:44.483Z,18.38
2022-09-15T15:26:36.209Z,18.33
2022-09-15T15:29:46.299Z,18.15
2022-09-15T15:32:42.990Z,18.03
2022-09-15T15:35:17.926Z,17.83
2022-09-15T15:37:49.744Z,17.70
2022-09-15T15:40:23.357Z,17.57
2022-09-15T15:42:59.382Z,17.45
2022-09-15T15:45:34.099Z,17.33
2022-09-15T15:48:04.429Z,17.22
2022-09-15T15:50:32.804Z,17.12
2022-09-15T15:53:02.670Z,16.99
2022-09-15T15:55:45.630Z,16.90
2022-09-15T15:58:15.443Z,16.81
2022-09-15T16:00:49.008Z,16.73
2022-09-15T16:03:18.927Z,16.67
2022-09-15T16:05:57.128Z,16.58
2022-09-15T16:08:41.813Z,16.52
2022-09-15T16:11:15.446Z,16.50
2022-09-15T16:13:47.106Z,16.50
2022-09-15T16:16:24.401Z,16.45
2022-09-15T16:18:52.675Z,16.43
2022-09-15T16:21:36.903Z,16.42
2022-09-15T16:24:05.995Z,16.42
2022-09-15T16:26:36.008Z,16.43
2022-09-15T16:29:04.480Z,16.43
2022-09-15T16:31:33.666Z,16.39
2022-09-15T16:34:02.628Z,16.34
2022-09-15T16:36:33.214Z,16.34
2022-09-15T16:39:04.696Z,16.35
2022-09-15T16:41:38.990Z,16.31
2022-09-15T16:44:17.754Z,16.25
2022-09-15T16:46:49.219Z,16.22
2022-09-15T16:49:17.711Z,16.15
2022-09-15T16:51:47.121Z,16.09
2022-09-15T16:54:18.242Z,16.02
2022-09-15T16:56:46.867Z,15.96
2022-09-15T16:59:14.808Z,15.93
2022-09-15T17:01:43.587Z,15.93
2022-09-15T17:04:15.931Z,15.95
2022-09-15T17:06:44.062Z,15.95
2022-09-15T17:09:15.585Z,15.91
2022-09-15T17:11:43.585Z,15.83
2022-09-15T17:14:18.867Z,15.77
2022-09-15T17:16:47.671Z,15.69
2022-09-15T17:19:16.114Z,15.62
2022-09-15T17:21:44.053Z,15.53
2022-09-15T17:24:13.451Z,15.47
2022-09-15T17:26:42.310Z,15.40
2022-09-15T17:29:10.502Z,15.38
2022-09-15T17:31:39.498Z,15.40
2022-09-15T17:34:14.575Z,15.41
2022-09-15T17:36:42.980Z,15.40
2022-09-15T17:39:11.866Z,15.37
2022-09-15T17:41:40.001Z,15.37
2022-09-15T17:44:11.724Z,15.35
2022-09-15T17:46:46.895Z,15.34
2022-09-15T17:49:17.876Z,15.34
2022-09-15T17:51:46.168Z,15.40
2022-09-15T17:54:14.430Z,15.47
2022-09-15T17:56:45.439Z,15.51
2022-09-15T17:59:16.216Z,15.53
2022-09-15T18:01:47.430Z,15.53
2022-09-15T18:04:18.447Z,15.51
2022-09-15T18:06:46.868Z,15.45
2022-09-15T18:09:16.204Z,15.39
2022-09-15T18:11:47.297Z,15.37
2022-09-15T18:14:15.601Z,15.34
2022-09-15T18:16:43.597Z,15.34
2022-09-15T18:19:14.612Z,15.38
2022-09-15T18:21:43.442Z,15.43
2022-09-15T18:24:15.205Z,15.43
2022-09-15T18:26:43.668Z,15.36
2022-09-15T18:29:12.758Z,15.29
2022-09-15T18:31:40.844Z,15.20
2022-09-15T18:34:10.480Z,15.13
2022-09-15T18:36:40.849Z,15.06
2022-09-15T18:39:12.570Z,15.02
2022-09-15T18:41:40.839Z,14.99
2022-09-15T18:44:09.269Z,14.97
2022-09-15T18:46:39.527Z,14.93
2022-09-15T18:49:09.684Z,14.86
2022-09-15T18:51:51.522Z,14.78
2022-09-15T18:54:20.285Z,14.70
2022-09-15T18:56:52.222Z,14.63
2022-09-15T18:59:23.557Z,14.60
2022-09-15T19:01:52.700Z,14.56
2022-09-15T19:04:21.038Z,14.52
2022-09-15T19:06:49.322Z,14.46
2022-09-15T19:09:18.688Z,14.40
2022-09-15T19:11:47.992Z,14.33
2022-09-15T19:14:16.147Z,14.28
2022-09-15T19:16:57.237Z,14.26
2022-09-15T19:19:25.990Z,14.25
2022-09-15T19:21:53.924Z,14.25
2022-09-15T19:24:22.574Z,14.24
2022-09-15T19:26:50.729Z,14.22
2022-09-15T19:29:18.952Z,14.20
2022-09-15T19:31:47.387Z,14.17
2022-09-15T19:34:18.582Z,14.16
2022-09-15T19:36:49.524Z,14.19
2022-09-15T19:39:17.802Z,14.20
2022-09-15T19:41:45.731Z,14.21
2022-09-15T19:44:16.585Z,14.20
2022-09-15T19:46:45.067Z,14.16
2022-09-15T19:49:13.144Z,14.15
2022-09-15T19:51:41.643Z,14.12
2022-09-15T19:54:09.954Z,14.10
2022-09-15T19:56:39.391Z,14.09
2022-09-15T19:59:07.238Z,14.09
2022-09-15T20:01:35.661Z,14.08
2022-09-15T20:04:06.495Z,14.04
2022-09-15T20:06:36.730Z,14.00
2022-09-15T20:09:06.946Z,13.96
2022-09-15T20:11:40.067Z,13.92
2022-09-15T20:14:12.172Z,13.91
2022-09-15T20:16:41.375Z,13.90
2022-09-15T20:19:10.289Z,13.88
2022-09-15T20:21:56.622Z,13.85
2022-09-15T20:24:26.250Z,13.81
2022-09-15T20:26:55.176Z,13.76
2022-09-15T20:29:24.817Z,13.75
2022-09-15T20:31:59.015Z,13.74
2022-09-15T20:34:27.604Z,13.72
2022-09-15T20:36:55.993Z,13.67
2022-09-15T20:39:25.078Z,13.66
2022-09-15T20:41:58.985Z,13.63
2022-09-15T20:44:27.875Z,13.62
2022-09-15T20:46:56.871Z,13.63
2022-09-15T20:49:25.873Z,13.63
2022-09-15T20:51:57.634Z,13.60
2022-09-15T20:54:25.819Z,13.54
2022-09-15T20:56:57.763Z,13.49
2022-09-15T20:59:31.614Z,13.45
2022-09-15T21:02:00.014Z,13.41
2022-09-15T21:04:28.509Z,13.39
2022-09-15T21:06:57.682Z,13.39
2022-09-15T21:09:26.063Z,13.35
2022-09-15T21:11:55.026Z,13.30
2022-09-15T21:14:25.842Z,13.26
2022-09-15T21:16:54.398Z,13.21
2022-09-15T21:19:22.787Z,13.17
2022-09-15T21:21:51.470Z,13.15
2022-09-15T21:24:19.572Z,13.14
2022-09-15T21:27:07.019Z,13.11
2022-09-15T21:29:35.920Z,13.05
2022-09-15T21:32:04.159Z,13.00
2022-09-15T21:34:32.408Z,12.96
2022-09-15T21:37:03.377Z,12.95
2022-09-15T21:39:31.524Z,12.94
2022-09-15T21:41:59.752Z,12.93
2022-09-15T21:44:33.180Z,12.90
2022-09-15T21:47:01.364Z,12.85
2022-09-15T21:49:30.117Z,12.81
2022-09-15T21:51:58.898Z,12.77
2022-09-15T21:54:32.423Z,12.74
2022-09-15T21:57:00.787Z,12.77
2022-09-15T21:59:29.007Z,12.78
2022-09-15T22:01:59.704Z,12.77
2022-09-15T22:04:30.794Z,12.76
2022-09-15T22:07:04.582Z,12.72
2022-09-15T22:09:34.026Z,12.68
2022-09-15T22:12:02.805Z,12.64
2022-09-15T22:14:33.598Z,12.64
2022-09-15T22:17:04.599Z,12.66
2022-09-15T22:19:32.627Z,12.67
2022-09-15T22:22:01.495Z,12.66
2022-09-15T22:24:32.670Z,12.65
2022-09-15T22:27:05.801Z,12.63
2022-09-15T22:29:34.055Z,12.60
2022-09-15T22:32:03.222Z,12.61
2022-09-15T22:34:33.941Z,12.66
2022-09-15T22:37:03.041Z,12.71
2022-09-15T22:39:57.464Z,12.74
2022-09-15T22:42:20.703Z,12.75
2022-09-15T22:44:49.328Z,12.75
2022-09-15T22:47:42.489Z,12.76
2022-09-15T22:50:11.907Z,12.80
2022-09-15T22:52:40.132Z,12.84
2022-09-15T22:55:09.372Z,12.87
2022-09-15T22:57:40.017Z,12.84
2022-09-15T23:00:10.339Z,12.84
2022-09-15T23:02:39.189Z,12.85
2022-09-15T23:05:07.521Z,12.91
2022-09-15T23:07:38.800Z,12.96
2022-09-15T23:10:12.048Z,13.00
2022-09-15T23:12:40.262Z,13.02
2022-09-15T23:15:10.990Z,13.03
2022-09-15T23:17:41.832Z,13.05
2022-09-15T23:20:11.775Z,13.09
2022-09-15T23:22:39.969Z,13.10
2022-09-15T23:25:09.194Z,13.09
2022-09-15T23:27:40.486Z,13.07
2022-09-15T23:30:10.815Z,13.04
2022-09-15T23:32:39.219Z,13.04
2022-09-15T23:35:09.815Z,13.04
2022-09-15T23:37:38.066Z,13.03
2022-09-15T23:40:07.517Z,13.00
2022-09-15T23:42:35.740Z,12.95
2022-09-15T23:45:04.636Z,12.90
2022-09-15T23:47:35.059Z,12.87
2022-09-15T23:50:05.852Z,12.87
2022-09-15T23:52:34.105Z,12.91
2022-09-15T23:55:02.584Z,12.94
2022-09-15T23:57:55.191Z,12.93
